Terminal Aerodrome Forecast
Issued by NWS

Current Version | Previous Version | Text Only | Print | Product List | Glossary Off
Versions: 1 2 3 4 5 6 7 8 9 10 11 12 13 14 15 16 17 18 19 20 21 22 23

837
FTUS41 KRLX 140527
TAFCKB
TAF
KCKB 140527Z 1406/1506 01004KT P6SM OVC050
     FM140900 VRB03KT 4SM -RA OVC022
     FM141400 VRB03KT 2SM -RA OVC009
     FM141900 VRB02KT 2SM -RA OVC004=

USA.gov is the U.S. government's official web portal to all federal, state and local government web resources and services.